createdAt,value
2022-10-04T00:00:49.638Z,95602.64
2022-10-04T00:03:33.458Z,95604.62
2022-10-04T00:06:03.885Z,95612.25
2022-10-04T00:08:53.597Z,95608.97
2022-10-04T00:11:25.375Z,95615.63
2022-10-04T00:13:57.046Z,95613.38
2022-10-04T00:16:28.753Z,95611.89
2022-10-04T00:19:20.013Z,95610.48
2022-10-04T00:22:09.629Z,95601.56
2022-10-04T00:24:39.592Z,95600.80
2022-10-04T00:27:26.268Z,95601.31
2022-10-04T00:30:06.777Z,95599.47
2022-10-04T00:32:44.047Z,95590.14
2022-10-04T00:35:31.057Z,95594.09
2022-10-04T00:38:11.623Z,95587.55
2022-10-04T00:40:43.214Z,95589.76
2022-10-04T00:43:24.119Z,95578.48
2022-10-04T00:46:15.639Z,95574.16
2022-10-04T00:48:52.779Z,95572.54
2022-10-04T00:51:37.891Z,95571.84
2022-10-04T00:54:10.412Z,95564.97
2022-10-04T00:56:53.508Z,95559.80
2022-10-04T00:59:28.281Z,95558.66
2022-10-04T01:02:05.900Z,95558.11
2022-10-04T01:04:40.967Z,95556.94
2022-10-04T01:07:12.120Z,95557.70
2022-10-04T01:09:49.795Z,95561.12
2022-10-04T01:12:30.242Z,95560.08
2022-10-04T01:15:07.900Z,95559.11
2022-10-04T01:17:36.797Z,95550.06
2022-10-04T01:20:07.646Z,95561.26
2022-10-04T01:22:45.104Z,95560.44
2022-10-04T01:25:16.842Z,95558.25
2022-10-04T01:27:45.810Z,95559.16
2022-10-04T01:30:18.218Z,95560.37
2022-10-04T01:32:46.856Z,95550.97
2022-10-04T01:35:18.763Z,95549.00
2022-10-04T01:37:48.065Z,95549.50
2022-10-04T01:40:16.899Z,95552.86
2022-10-04T01:42:51.543Z,95554.81
2022-10-04T01:45:32.575Z,95552.24
2022-10-04T01:48:04.684Z,95554.77
2022-10-04T01:50:36.473Z,95551.05
2022-10-04T01:53:23.277Z,95556.36
2022-10-04T01:55:58.211Z,95556.48
2022-10-04T01:58:33.217Z,95559.00
2022-10-04T02:01:05.081Z,95562.22
2022-10-04T02:03:36.921Z,95559.77
2022-10-04T02:06:08.447Z,95562.42
2022-10-04T02:08:40.009Z,95563.70
2022-10-04T02:13:40.889Z,95558.84
2022-10-04T02:16:14.489Z,95566.41
2022-10-04T02:18:46.104Z,95570.81
2022-10-04T02:21:28.115Z,95575.06
2022-10-04T02:23:58.651Z,95574.56
2022-10-04T02:26:31.459Z,95573.37
2022-10-04T02:29:00.385Z,95571.58
2022-10-04T02:31:47.825Z,95576.23
2022-10-04T02:34:21.264Z,95575.41
2022-10-04T02:36:52.030Z,95583.15
2022-10-04T02:39:35.415Z,95583.15
2022-10-04T02:42:15.363Z,95580.07
2022-10-04T02:44:47.126Z,95583.50
2022-10-04T02:47:24.235Z,95594.14
2022-10-04T02:49:57.569Z,95597.00
2022-10-04T02:52:29.529Z,95586.66
2022-10-04T02:55:13.342Z,95596.98
2022-10-04T02:57:44.803Z,95593.67
2022-10-04T03:00:19.369Z,95588.30
2022-10-04T03:03:25.825Z,95588.87
2022-10-04T03:06:15.407Z,95592.69
2022-10-04T03:08:53.069Z,95597.31
2022-10-04T03:11:24.818Z,95604.66
2022-10-04T03:13:58.032Z,95602.00
2022-10-04T03:16:27.499Z,95602.89
2022-10-04T03:18:58.615Z,95603.66
2022-10-04T03:21:32.117Z,95604.42
2022-10-04T03:24:04.696Z,95612.34
2022-10-04T03:26:42.032Z,95614.80
2022-10-04T03:29:13.381Z,95612.30
2022-10-04T03:31:46.624Z,95619.66
2022-10-04T03:34:31.943Z,95620.94
2022-10-04T03:37:03.026Z,95618.47
2022-10-04T03:39:40.415Z,95619.23
2022-10-04T03:42:41.113Z,95626.81
2022-10-04T03:45:31.686Z,95623.48
2022-10-04T03:48:09.490Z,95622.72
2022-10-04T03:50:45.454Z,95626.44
2022-10-04T03:53:35.077Z,95626.63
2022-10-04T03:56:05.968Z,95634.43
2022-10-04T03:58:34.778Z,95634.25
2022-10-04T04:01:24.567Z,95638.97
2022-10-04T04:04:29.840Z,95638.92
2022-10-04T04:07:15.369Z,95642.25
2022-10-04T04:09:50.866Z,95642.93
2022-10-04T04:12:25.375Z,95646.29
2022-10-04T04:14:55.475Z,95641.54
2022-10-04T04:17:45.412Z,95649.16
2022-10-04T04:20:23.350Z,95658.02
2022-10-04T04:22:59.162Z,95657.63
2022-10-04T04:25:32.119Z,95647.45
2022-10-04T04:28:03.738Z,95656.54
2022-10-04T04:30:35.226Z,95662.34
2022-10-04T04:33:06.849Z,95661.58
2022-10-04T04:35:36.873Z,95667.95
2022-10-04T04:38:19.955Z,95659.16
2022-10-04T04:40:48.987Z,95663.70
2022-10-04T04:43:21.344Z,95668.19
2022-10-04T04:46:03.227Z,95654.37
2022-10-04T04:48:24.182Z,95666.19
2022-10-04T04:50:58.667Z,95665.38
2022-10-04T04:53:31.427Z,95670.14
2022-10-04T04:56:05.545Z,95676.79
2022-10-04T04:58:41.749Z,95676.66
2022-10-04T05:01:35.329Z,95680.53
2022-10-04T05:04:12.563Z,95676.33
2022-10-04T05:06:52.098Z,95684.66
2022-10-04T05:09:43.501Z,95677.73
2022-10-04T05:12:18.066Z,95682.33
2022-10-04T05:14:49.868Z,95679.63
2022-10-04T05:17:27.576Z,95679.50
2022-10-04T05:19:59.162Z,95682.41
2022-10-04T05:22:30.736Z,95681.86
2022-10-04T05:25:03.131Z,95683.14
2022-10-04T05:27:37.315Z,95682.37
2022-10-04T05:30:11.746Z,95687.83
2022-10-04T05:33:04.823Z,95695.37
2022-10-04T05:35:45.159Z,95691.52
2022-10-04T05:38:28.891Z,95693.20
2022-10-04T05:41:11.843Z,95702.53
2022-10-04T05:43:43.453Z,95701.22
2022-10-04T05:46:33.126Z,95709.13
2022-10-04T05:49:13.394Z,95707.59
2022-10-04T05:52:02.463Z,95712.21
2022-10-04T05:54:36.874Z,95716.97
2022-10-04T05:57:12.913Z,95719.38
2022-10-04T06:00:09.783Z,95722.55
2022-10-04T06:02:44.366Z,95729.55
2022-10-04T06:05:26.841Z,95738.61
2022-10-04T06:08:16.766Z,95743.38
2022-10-04T06:11:00.336Z,95743.30
2022-10-04T06:14:05.242Z,95739.03
2022-10-04T06:16:49.209Z,95745.34
2022-10-04T06:19:35.601Z,95747.52
2022-10-04T06:22:16.041Z,95751.16
2022-10-04T06:24:47.845Z,95750.85
2022-10-04T06:27:41.823Z,95754.97
2022-10-04T06:30:16.271Z,95758.12
2022-10-04T06:32:53.876Z,95761.69
2022-10-04T06:35:42.703Z,95758.33
2022-10-04T06:38:37.191Z,95760.36
2022-10-04T06:41:28.567Z,95750.91
2022-10-04T06:44:26.103Z,95767.96
2022-10-04T06:46:57.681Z,95759.34
2022-10-04T06:49:34.818Z,95767.06
2022-10-04T06:52:16.621Z,95776.24
2022-10-04T06:55:05.069Z,95773.89
2022-10-04T06:58:02.504Z,95774.25
2022-10-04T07:00:36.958Z,95773.52
2022-10-04T07:03:20.482Z,95777.23
2022-10-04T07:05:54.773Z,95773.00
2022-10-04T07:08:32.672Z,95776.70
2022-10-04T07:11:12.288Z,95783.69
2022-10-04T07:13:57.821Z,95773.11
2022-10-04T07:16:34.977Z,95779.47
2022-10-04T07:19:20.438Z,95788.74
2022-10-04T07:22:07.074Z,95787.05
2022-10-04T07:24:56.573Z,95789.45
2022-10-04T07:27:34.202Z,95790.17
2022-10-04T07:30:08.644Z,95795.35
2022-10-04T07:32:40.299Z,95796.36
2022-10-04T07:35:14.717Z,95799.23
2022-10-04T07:37:53.989Z,95808.47
2022-10-04T07:40:31.445Z,95809.04
2022-10-04T07:43:06.159Z,95804.62
2022-10-04T07:45:39.395Z,95815.15
2022-10-04T07:48:26.130Z,95811.27
2022-10-04T07:51:08.144Z,95818.66
2022-10-04T07:53:42.647Z,95821.53
2022-10-04T07:56:27.513Z,95830.37
2022-10-04T07:59:20.429Z,95821.66
2022-10-04T08:02:30.820Z,95820.33
2022-10-04T08:05:17.631Z,95824.20
2022-10-04T08:07:49.574Z,95826.44
2022-10-04T08:10:54.124Z,95826.25
2022-10-04T08:13:38.130Z,95820.20
2022-10-04T08:16:12.402Z,95824.63
2022-10-04T08:19:10.074Z,95821.96
2022-10-04T08:21:58.341Z,95821.45
2022-10-04T08:25:06.370Z,95813.12
2022-10-04T08:27:48.683Z,95815.60
2022-10-04T08:30:19.750Z,95812.75
2022-10-04T08:32:54.852Z,95811.63
2022-10-04T08:35:36.487Z,95814.16
2022-10-04T08:38:17.915Z,95817.59
2022-10-04T08:41:11.138Z,95819.84
2022-10-04T08:43:51.690Z,95811.35
2022-10-04T08:46:59.569Z,95813.83
2022-10-04T08:49:44.190Z,95811.77
2022-10-04T08:52:44.084Z,95804.91
2022-10-04T08:55:27.961Z,95804.92
2022-10-04T08:58:23.828Z,95811.87
2022-10-04T09:01:01.629Z,95809.19
2022-10-04T09:04:15.476Z,95800.42
2022-10-04T09:06:50.711Z,95805.38
2022-10-04T09:09:47.707Z,95807.63
2022-10-04T09:12:37.256Z,95804.31
2022-10-04T09:15:24.219Z,95804.85
2022-10-04T09:18:15.303Z,95806.28
2022-10-04T09:20:59.136Z,95803.58
2022-10-04T09:23:44.614Z,95812.90
2022-10-04T09:26:32.714Z,95804.47
2022-10-04T09:29:35.899Z,95804.15
2022-10-04T09:32:33.012Z,95806.25
2022-10-04T09:35:17.728Z,95814.39
2022-10-04T09:38:07.084Z,95808.19
2022-10-04T09:41:11.711Z,95817.42
2022-10-04T09:44:00.672Z,95810.04
2022-10-04T09:46:56.192Z,95812.50
2022-10-04T09:49:39.960Z,95803.19
2022-10-04T09:52:20.499Z,95812.42
2022-10-04T09:55:08.446Z,95810.96
2022-10-04T09:57:42.633Z,95814.22
2022-10-04T10:00:21.772Z,95810.97
2022-10-04T10:03:15.596Z,95815.38
2022-10-04T10:06:08.627Z,95805.96
2022-10-04T10:09:03.271Z,95804.06
2022-10-04T10:12:13.806Z,95801.75
2022-10-04T10:15:06.317Z,95818.03
2022-10-04T10:17:48.457Z,95810.34
2022-10-04T10:20:29.290Z,95816.25
2022-10-04T10:23:04.571Z,95812.48
2022-10-04T10:25:54.424Z,95813.44
2022-10-04T10:28:47.091Z,95811.34
2022-10-04T10:31:25.071Z,95813.57
2022-10-04T10:34:24.437Z,95819.22
2022-10-04T10:37:15.459Z,95812.88
2022-10-04T10:40:10.824Z,95820.75
2022-10-04T10:43:01.692Z,95816.30
2022-10-04T10:45:53.242Z,95816.35
2022-10-04T10:48:44.089Z,95816.13
2022-10-04T10:51:30.580Z,95828.19
2022-10-04T10:54:25.699Z,95821.68
2022-10-04T10:57:25.489Z,95818.08
2022-10-04T11:00:16.697Z,95817.88
2022-10-04T11:02:53.635Z,95815.75
2022-10-04T11:05:37.257Z,95818.69
2022-10-04T11:18:21.830Z,95823.25
2022-10-04T11:21:10.448Z,95818.14
2022-10-04T11:23:54.399Z,95813.50
2022-10-04T11:26:53.319Z,95817.98
2022-10-04T11:29:28.822Z,95818.46
2022-10-04T11:32:03.367Z,95816.16
2022-10-04T11:35:08.585Z,95817.10
2022-10-04T11:37:49.235Z,95812.86
2022-10-04T11:40:51.446Z,95817.48
2022-10-04T11:43:45.646Z,95824.23
2022-10-04T11:46:39.912Z,95817.52
2022-10-04T11:49:34.376Z,95815.46
2022-10-04T11:52:23.025Z,95817.98
2022-10-04T11:55:15.765Z,95822.86
2022-10-04T11:57:58.315Z,95823.08
2022-10-04T12:03:33.451Z,95823.27
2022-10-04T12:06:17.000Z,95826.33
2022-10-04T12:09:06.889Z,95822.50
2022-10-04T12:11:59.454Z,95825.94
2022-10-04T12:14:52.556Z,95817.50
2022-10-04T12:17:30.539Z,95820.56
2022-10-04T12:20:24.797Z,95820.56
2022-10-04T12:24:03.176Z,95814.02
2022-10-04T12:25:59.014Z,95818.84
2022-10-04T12:28:50.162Z,95820.08
2022-10-04T12:31:38.966Z,95817.41
2022-10-04T12:34:21.076Z,95817.23
2022-10-04T12:37:13.518Z,95830.82
2022-10-04T12:39:54.294Z,95828.47
2022-10-04T12:42:45.710Z,95820.36
2022-10-04T12:45:26.270Z,95824.03
2022-10-04T12:48:23.605Z,95826.34
2022-10-04T12:51:04.327Z,95824.78
2022-10-04T12:53:46.822Z,95822.90
2022-10-04T12:56:43.284Z,95836.70
2022-10-04T12:59:41.175Z,95824.98
2022-10-04T13:02:24.779Z,95824.43
2022-10-04T13:04:56.564Z,95827.13
2022-10-04T13:07:29.929Z,95824.42
2022-10-04T13:10:25.340Z,95826.84
2022-10-04T13:13:23.334Z,95822.03
2022-10-04T13:18:37.938Z,95828.41
2022-10-04T13:21:09.615Z,95825.34
2022-10-04T13:23:56.182Z,95822.09
2022-10-04T13:26:42.267Z,95823.06
2022-10-04T13:29:30.421Z,95827.44
2022-10-04T13:32:11.341Z,95813.53
2022-10-04T13:35:09.333Z,95821.78
2022-10-04T13:37:49.331Z,95824.06
2022-10-04T13:40:39.284Z,95823.89
2022-10-04T13:43:16.675Z,95827.19
2022-10-04T13:46:07.908Z,95827.39
2022-10-04T13:49:02.351Z,95828.77
2022-10-04T13:51:49.118Z,95839.32
2022-10-04T13:54:51.320Z,95832.37
2022-10-04T13:57:31.957Z,95842.39
2022-10-04T14:00:15.203Z,95833.95
2022-10-04T14:03:12.143Z,95842.41
2022-10-04T14:06:10.654Z,95843.54
2022-10-04T14:09:38.520Z,95848.61
2022-10-04T14:11:59.446Z,95848.91
2022-10-04T14:14:47.267Z,95847.34
2022-10-04T14:17:23.016Z,95855.77
2022-10-04T14:20:20.306Z,95853.48
2022-10-04T14:22:53.785Z,95855.55
2022-10-04T14:25:45.062Z,95862.39
2022-10-04T14:28:19.360Z,95860.05
2022-10-04T14:31:12.219Z,95864.12
2022-10-04T14:33:49.888Z,95866.80
2022-10-04T14:36:36.989Z,95879.34
2022-10-04T14:39:17.515Z,95871.16
2022-10-04T14:41:58.856Z,95875.13
2022-10-04T14:44:34.454Z,95876.77
2022-10-04T14:47:28.979Z,95876.38
2022-10-04T14:50:19.713Z,95885.95
2022-10-04T14:53:09.188Z,95888.03
2022-10-04T14:55:40.749Z,95891.69
2022-10-04T14:58:31.160Z,95901.38
2022-10-04T15:01:02.933Z,95898.78
2022-10-04T15:03:43.468Z,95901.93
2022-10-04T15:06:16.677Z,95905.70
2022-10-04T15:09:12.182Z,95910.02
2022-10-04T15:12:27.314Z,95906.91
2022-10-04T15:14:33.756Z,95916.30
2022-10-04T15:17:05.249Z,95917.48
2022-10-04T15:19:52.085Z,95928.12
2022-10-04T15:22:29.680Z,95929.98
2022-10-04T15:24:59.554Z,95935.31
2022-10-04T15:27:37.089Z,95931.87
2022-10-04T15:30:20.660Z,95929.19
2022-10-04T15:33:16.722Z,95941.64
2022-10-04T15:35:54.579Z,95941.09
2022-10-04T15:38:33.502Z,95945.95
2022-10-04T15:41:10.744Z,95940.98
2022-10-04T15:44:14.389Z,95951.67
2022-10-04T15:47:00.958Z,95957.37
2022-10-04T15:49:53.698Z,95950.74
2022-10-04T15:52:52.100Z,95958.73
2022-10-04T15:55:34.079Z,95958.27
2022-10-04T15:58:17.073Z,95960.18
2022-10-04T16:00:56.885Z,95972.52
2022-10-04T16:03:28.490Z,95968.97
2022-10-04T16:06:10.873Z,95963.92
2022-10-04T16:08:46.881Z,95967.48
2022-10-04T16:11:50.609Z,95971.27
2022-10-04T16:14:41.392Z,95965.81
2022-10-04T16:17:19.885Z,95976.09
2022-10-04T16:20:09.097Z,95981.33
2022-10-04T16:22:38.429Z,95981.83
2022-10-04T16:25:28.111Z,95987.39
2022-10-04T16:28:03.826Z,95989.29
2022-10-04T16:30:39.980Z,95998.03
2022-10-04T16:33:20.306Z,95995.41
2022-10-04T16:35:54.711Z,96003.98
2022-10-04T16:38:26.667Z,96006.87
2022-10-04T16:41:13.576Z,96013.70
2022-10-04T16:43:57.246Z,96012.98
2022-10-04T16:46:33.447Z,96018.12
2022-10-04T16:53:04.456Z,96022.55
2022-10-04T16:55:37.742Z,96037.04
2022-10-04T16:58:29.755Z,96030.52
2022-10-04T17:01:30.425Z,96036.14
2022-10-04T17:04:05.088Z,96039.66
2022-10-04T17:06:46.451Z,96046.19
2022-10-04T17:09:50.317Z,96026.95
2022-10-04T17:12:37.321Z,96047.12
2022-10-04T17:15:40.737Z,96055.86
2022-10-04T17:18:19.633Z,96062.02
2022-10-04T17:20:55.836Z,96060.27
2022-10-04T17:23:48.469Z,96061.61
2022-10-04T17:26:40.831Z,96059.42
2022-10-04T17:29:33.544Z,96068.50
2022-10-04T17:36:05.628Z,96077.30
2022-10-04T17:38:49.171Z,96078.17
2022-10-04T17:41:26.805Z,96084.33
2022-10-04T17:44:20.726Z,96084.12
2022-10-04T17:47:14.830Z,96087.52
2022-10-04T17:50:25.418Z,96085.81
2022-10-04T17:53:17.739Z,96088.56
2022-10-04T17:55:49.348Z,96090.05
2022-10-04T17:58:42.197Z,96099.39
2022-10-04T18:01:18.314Z,96106.08
2022-10-04T18:04:02.031Z,96105.22
2022-10-04T18:06:36.703Z,96110.50
2022-10-04T18:09:19.411Z,96118.58
2022-10-04T18:11:49.364Z,96117.81
2022-10-04T18:14:42.048Z,96124.34
2022-10-04T18:17:13.675Z,96118.03
2022-10-04T18:19:51.432Z,96122.94
2022-10-04T18:22:26.505Z,96124.62
2022-10-04T18:25:28.139Z,96134.63
2022-10-04T18:28:11.884Z,96133.49
2022-10-04T18:31:01.517Z,96137.14
2022-10-04T18:33:37.473Z,96130.95
2022-10-04T18:36:09.098Z,96137.98
2022-10-04T18:38:38.037Z,96132.58
2022-10-04T18:41:23.618Z,96128.58
2022-10-04T18:43:56.034Z,96129.75
2022-10-04T18:46:28.677Z,96122.59
2022-10-04T18:49:04.499Z,96129.06
2022-10-04T18:51:42.046Z,96124.61
2022-10-04T18:54:30.794Z,96133.88
2022-10-04T18:57:21.565Z,96137.42
2022-10-04T19:00:27.758Z,96139.09
2022-10-04T19:03:31.018Z,96145.20
2022-10-04T19:06:18.975Z,96151.83
2022-10-04T19:08:53.531Z,96152.08
2022-10-04T19:11:30.889Z,96153.53
2022-10-04T19:14:22.299Z,96146.13
2022-10-04T19:17:03.241Z,96154.59
2022-10-04T19:19:52.681Z,96156.84
2022-10-04T19:22:33.227Z,96161.38
2022-10-04T19:25:31.638Z,96162.31
2022-10-04T19:28:18.412Z,96164.48
2022-10-04T19:30:58.814Z,96168.72
2022-10-04T19:34:02.481Z,96167.06
2022-10-04T19:36:43.981Z,96171.73
2022-10-04T19:39:27.902Z,96165.09
2022-10-04T19:42:13.883Z,96165.66
2022-10-04T19:45:20.388Z,96171.58
2022-10-04T19:47:51.139Z,96182.66
2022-10-04T19:50:44.504Z,96175.11
2022-10-04T19:59:46.485Z,96168.84
2022-10-04T20:02:39.437Z,96108.52
2022-10-04T20:05:26.537Z,96173.67
2022-10-04T20:08:13.571Z,96172.70
2022-10-04T20:10:47.357Z,96171.70
2022-10-04T20:13:34.483Z,96177.03
2022-10-04T20:16:25.278Z,96183.25
2022-10-04T20:18:59.702Z,96191.01
2022-10-04T20:21:32.125Z,96190.23
2022-10-04T20:24:16.522Z,96190.55
2022-10-04T20:26:54.138Z,96136.06
2022-10-04T20:29:41.367Z,96197.45
2022-10-04T20:32:13.450Z,96197.56
2022-10-04T20:34:49.420Z,96197.47
2022-10-04T20:37:19.364Z,96198.81
2022-10-04T20:39:55.795Z,96202.59
2022-10-04T20:42:32.942Z,96197.92
2022-10-04T20:45:14.825Z,96201.92
2022-10-04T20:47:57.868Z,96206.59
2022-10-04T20:50:44.665Z,96207.25
2022-10-04T20:53:22.640Z,96210.59
2022-10-04T20:55:53.856Z,96205.91
2022-10-04T20:58:35.371Z,96213.47
2022-10-04T21:01:08.968Z,96217.69
2022-10-04T21:03:37.924Z,96213.27
2022-10-04T21:06:09.670Z,96215.49
2022-10-04T21:08:40.926Z,96226.81
2022-10-04T21:11:19.458Z,96227.03
2022-10-04T21:13:57.332Z,96225.23
2022-10-04T21:16:44.445Z,96227.47
2022-10-04T21:19:39.362Z,96202.86
2022-10-04T21:22:10.160Z,96222.36
2022-10-04T21:24:41.763Z,96222.70
2022-10-04T21:27:15.998Z,96224.58
2022-10-04T21:29:46.772Z,96223.69
2022-10-04T21:32:15.319Z,96225.36
2022-10-04T21:34:54.158Z,96228.02
2022-10-04T21:37:16.121Z,96227.46
2022-10-04T21:39:45.428Z,96226.13
2022-10-04T21:42:15.607Z,96224.02
2022-10-04T21:44:44.648Z,96220.48
2022-10-04T21:47:14.975Z,96214.60
2022-10-04T21:49:43.764Z,96224.47
2022-10-04T21:52:12.461Z,96219.14
2022-10-04T21:54:41.082Z,96225.20
2022-10-04T21:57:09.672Z,96226.55
2022-10-04T21:59:38.368Z,96220.66
2022-10-04T22:02:08.012Z,96226.54
2022-10-04T22:04:38.322Z,96228.53
2022-10-04T22:07:07.000Z,96230.41
2022-10-04T22:09:36.104Z,96233.05
2022-10-04T22:12:04.731Z,96216.16
2022-10-04T22:14:33.354Z,96229.18
2022-10-04T22:17:03.712Z,96233.25
2022-10-04T22:19:32.428Z,96234.80
2022-10-04T22:22:01.198Z,96243.78
2022-10-04T22:24:29.960Z,96243.40
2022-10-04T22:26:59.426Z,96239.27
2022-10-04T22:29:29.947Z,96247.25
2022-10-04T22:31:58.661Z,96246.75
2022-10-04T22:34:28.826Z,96243.09
2022-10-04T22:36:59.333Z,96247.39
2022-10-04T22:39:32.358Z,96247.50
2022-10-04T22:42:02.547Z,96249.05
2022-10-04T22:44:34.383Z,96254.42
2022-10-04T22:47:04.203Z,96252.98
2022-10-04T22:49:35.880Z,96255.56
2022-10-04T22:52:09.559Z,96262.23
2022-10-04T22:54:39.388Z,96264.56
2022-10-04T22:57:09.440Z,96268.23
2022-10-04T22:59:43.995Z,96269.30
2022-10-04T23:02:18.107Z,96258.34
2022-10-04T23:04:52.573Z,96259.77
2022-10-04T23:07:21.806Z,96262.00
2022-10-04T23:09:50.851Z,96261.22
2022-10-04T23:12:19.644Z,96260.23
2022-10-04T23:14:48.250Z,96259.11
2022-10-04T23:17:25.573Z,96257.34
2022-10-04T23:19:57.167Z,96256.19
2022-10-04T23:22:28.248Z,96253.53
2022-10-04T23:24:57.633Z,96255.44
2022-10-04T23:27:26.284Z,96258.65
2022-10-04T23:30:03.721Z,96256.08
2022-10-04T23:32:33.597Z,96265.85
2022-10-04T23:35:03.868Z,96268.98
2022-10-04T23:37:33.543Z,96271.17
2022-10-04T23:40:04.476Z,96273.95
2022-10-04T23:42:39.396Z,96273.14
2022-10-04T23:45:17.130Z,96268.88
2022-10-04T23:47:47.105Z,96274.16
2022-10-04T23:50:36.343Z,96274.94
2022-10-04T23:53:14.071Z,96276.53
2022-10-04T23:55:49.348Z,96275.82
2022-10-04T23:58:28.681Z,96233.39
